Little Rock, Mississippi
Current Conditions -  °F | °C
As of 11:58 AM on Thursday 23 Oct 2014 (Local Time) from KMEI Reporting Station
Clear Clear  
Wind Chill: 66°   Ceiling: Unl
Heat Index: 66°   Visibility: 10mi
Dew Point: 43°   Wind: 3mph
Humidity: 43%   Direction: NA
Pressure: 30.15"   Gusts: NA
Location:  32.53°N, 89.03°W
Report Text: KMEI 231658Z VRB03KT 10SM CLR 19/06 A3015 RMK AO2 SLP208 T01890061
Loading
Personal Weather Stations






























Interactive Weather Map
Tropical Storm Tracking
New forecast layout! Learn more

10-Day Weather Forecast

Advertisements
Track Severe Weather on mobile